sensor_id;sensor_type;location;lat;lon;timestamp;pressure;altitude;pressure_sealevel;temperature;humidity
39793;BME280;26080;42.264;24.536;2023-06-10T00:01:48;98719.88;;;16.37;100.00
39793;BME280;26080;42.264;24.536;2023-06-10T00:04:15;98701.28;;;16.27;100.00
39793;BME280;26080;42.264;24.536;2023-06-10T00:06:43;98723.63;;;16.34;100.00
39793;BME280;26080;42.264;24.536;2023-06-10T00:09:09;98715.56;;;16.47;100.00
39793;BME280;26080;42.264;24.536;2023-06-10T00:11:36;98731.41;;;16.47;100.00
39793;BME280;26080;42.264;24.536;2023-06-10T00:14:02;98710.16;;;16.37;100.00
39793;BME280;26080;42.264;24.536;2023-06-10T00:16:27;98716.28;;;16.38;100.00
39793;BME280;26080;42.264;24.536;2023-06-10T00:18:53;98706.34;;;16.19;100.00
39793;BME280;26080;42.264;24.536;2023-06-10T00:21:21;98721.38;;;16.07;100.00
39793;BME280;26080;42.264;24.536;2023-06-10T00:23:47;98701.19;;;15.84;100.00
39793;BME280;26080;42.264;24.536;2023-06-10T00:26:12;98720.16;;;15.89;100.00
39793;BME280;26080;42.264;24.536;2023-06-10T00:28:38;98717.63;;;15.87;100.00
39793;BME280;26080;42.264;24.536;2023-06-10T00:31:03;98716.19;;;15.83;100.00
39793;BME280;26080;42.264;24.536;2023-06-10T00:33:29;98714.41;;;15.84;100.00
39793;BME280;26080;42.264;24.536;2023-06-10T00:35:55;98713.69;;;15.82;100.00
39793;BME280;26080;42.264;24.536;2023-06-10T00:38:23;98718.72;;;15.85;100.00
39793;BME280;26080;42.264;24.536;2023-06-10T00:40:49;98711.06;;;15.93;100.00
39793;BME280;26080;42.264;24.536;2023-06-10T00:43:14;98720.28;;;15.98;100.00
39793;BME280;26080;42.264;24.536;2023-06-10T00:45:40;98709.72;;;15.98;100.00
39793;BME280;26080;42.264;24.536;2023-06-10T00:48:05;98705.88;;;16.03;100.00
39793;BME280;26080;42.264;24.536;2023-06-10T00:50:31;98717.75;;;16.08;100.00
39793;BME280;26080;42.264;24.536;2023-06-10T00:52:58;98722.66;;;16.13;100.00
39793;BME280;26080;42.264;24.536;2023-06-10T00:55:24;98713.53;;;16.17;100.00
39793;BME280;26080;42.264;24.536;2023-06-10T00:57:50;98712.09;;;16.13;100.00
39793;BME280;26080;42.264;24.536;2023-06-10T01:00:16;98716.16;;;16.28;100.00
39793;BME280;26080;42.264;24.536;2023-06-10T01:02:42;98717.25;;;16.25;100.00
39793;BME280;26080;42.264;24.536;2023-06-10T01:05:09;98715.94;;;16.31;100.00
39793;BME280;26080;42.264;24.536;2023-06-10T01:10:17;98721.38;;;16.07;100.00
39793;BME280;26080;42.264;24.536;2023-06-10T01:13:03;98721.25;;;15.97;100.00
39793;BME280;26080;42.264;24.536;2023-06-10T01:15:34;98716.81;;;15.98;100.00
39793;BME280;26080;42.264;24.536;2023-06-10T01:18:10;98710.81;;;15.96;100.00
39793;BME280;26080;42.264;24.536;2023-06-10T01:20:41;98718.47;;;15.99;100.00
39793;BME280;26080;42.264;24.536;2023-06-10T01:23:09;98717.03;;;15.84;100.00
39793;BME280;26080;42.264;24.536;2023-06-10T01:25:43;98725.78;;;15.73;100.00
39793;BME280;26080;42.264;24.536;2023-06-10T01:28:22;98716.31;;;15.70;100.00
39793;BME280;26080;42.264;24.536;2023-06-10T01:33:25;98724.44;;;15.56;100.00
39793;BME280;26080;42.264;24.536;2023-06-10T01:35:52;98719.38;;;15.53;100.00
39793;BME280;26080;42.264;24.536;2023-06-10T01:38:19;98714.22;;;15.52;100.00
39793;BME280;26080;42.264;24.536;2023-06-10T01:40:46;98715.78;;;15.54;100.00
39793;BME280;26080;42.264;24.536;2023-06-10T01:43:13;98708.31;;;15.48;100.00
39793;BME280;26080;42.264;24.536;2023-06-10T01:45:38;98709.06;;;15.50;100.00
39793;BME280;26080;42.264;24.536;2023-06-10T01:48:04;98711.81;;;15.49;100.00
39793;BME280;26080;42.264;24.536;2023-06-10T01:50:29;98708.13;;;15.51;100.00
39793;BME280;26080;42.264;24.536;2023-06-10T01:52:57;98708.16;;;15.62;100.00
39793;BME280;26080;42.264;24.536;2023-06-10T01:55:23;98684.72;;;15.58;100.00
39793;BME280;26080;42.264;24.536;2023-06-10T01:57:49;98716.56;;;15.79;100.00
39793;BME280;26080;42.264;24.536;2023-06-10T02:00:14;98707.19;;;15.75;100.00
39793;BME280;26080;42.264;24.536;2023-06-10T02:02:40;98702.41;;;15.68;100.00
39793;BME280;26080;42.264;24.536;2023-06-10T02:05:06;98721.59;;;15.82;100.00
39793;BME280;26080;42.264;24.536;2023-06-10T02:07:31;98683.78;;;15.70;100.00
39793;BME280;26080;42.264;24.536;2023-06-10T02:09:57;98718.72;;;16.07;100.00
39793;BME280;26080;42.264;24.536;2023-06-10T02:12:22;98718.59;;;16.20;100.00
39793;BME280;26080;42.264;24.536;2023-06-10T02:14:48;98726.41;;;16.21;100.00
39793;BME280;26080;42.264;24.536;2023-06-10T02:17:13;98725.41;;;16.45;100.00
39793;BME280;26080;42.264;24.536;2023-06-10T02:19:40;98729.81;;;16.44;100.00
39793;BME280;26080;42.264;24.536;2023-06-10T02:22:10;98708.88;;;16.20;100.00
39793;BME280;26080;42.264;24.536;2023-06-10T02:24:36;98715.97;;;16.20;100.00
39793;BME280;26080;42.264;24.536;2023-06-10T02:27:04;98721.25;;;16.20;100.00
39793;BME280;26080;42.264;24.536;2023-06-10T02:29:33;98717.75;;;16.19;100.00
39793;BME280;26080;42.264;24.536;2023-06-10T02:31:58;98721.44;;;16.28;100.00
39793;BME280;26080;42.264;24.536;2023-06-10T02:34:24;98718.66;;;16.41;100.00
39793;BME280;26080;42.264;24.536;2023-06-10T02:36:49;98722.50;;;16.48;100.00
39793;BME280;26080;42.264;24.536;2023-06-10T02:39:16;98718.91;;;16.49;100.00
39793;BME280;26080;42.264;24.536;2023-06-10T02:41:42;98730.63;;;16.78;100.00
39793;BME280;26080;42.264;24.536;2023-06-10T02:44:07;98726.28;;;16.88;100.00
39793;BME280;26080;42.264;24.536;2023-06-10T02:46:32;98727.59;;;16.83;100.00
39793;BME280;26080;42.264;24.536;2023-06-10T02:48:58;98739.63;;;16.87;100.00
39793;BME280;26080;42.264;24.536;2023-06-10T02:51:23;98743.34;;;16.84;100.00
39793;BME280;26080;42.264;24.536;2023-06-10T02:53:48;98745.00;;;16.85;100.00
39793;BME280;26080;42.264;24.536;2023-06-10T02:56:16;98753.13;;;16.73;100.00
39793;BME280;26080;42.264;24.536;2023-06-10T02:58:42;98755.13;;;16.80;100.00
39793;BME280;26080;42.264;24.536;2023-06-10T03:01:07;98751.78;;;16.78;100.00
39793;BME280;26080;42.264;24.536;2023-06-10T03:03:35;98757.00;;;17.01;100.00
39793;BME280;26080;42.264;24.536;2023-06-10T03:06:02;98752.16;;;17.06;100.00
39793;BME280;26080;42.264;24.536;2023-06-10T03:08:28;98762.28;;;17.01;100.00
39793;BME280;26080;42.264;24.536;2023-06-10T03:10:53;98755.31;;;17.00;100.00
39793;BME280;26080;42.264;24.536;2023-06-10T03:13:19;98757.09;;;16.99;100.00
39793;BME280;26080;42.264;24.536;2023-06-10T03:15:44;98757.72;;;17.03;100.00
39793;BME280;26080;42.264;24.536;2023-06-10T03:18:11;98755.06;;;17.03;100.00
39793;BME280;26080;42.264;24.536;2023-06-10T03:20:36;98746.91;;;16.95;100.00
39793;BME280;26080;42.264;24.536;2023-06-10T03:23:04;98755.66;;;17.06;100.00
39793;BME280;26080;42.264;24.536;2023-06-10T03:25:31;98756.56;;;17.16;100.00
39793;BME280;26080;42.264;24.536;2023-06-10T03:27:57;98751.66;;;17.12;100.00
39793;BME280;26080;42.264;24.536;2023-06-10T03:30:22;98754.41;;;17.10;100.00
39793;BME280;26080;42.264;24.536;2023-06-10T03:32:48;98750.94;;;17.10;100.00
39793;BME280;26080;42.264;24.536;2023-06-10T03:35:14;98727.69;;;16.93;100.00
39793;BME280;26080;42.264;24.536;2023-06-10T03:37:40;98755.31;;;17.00;100.00
39793;BME280;26080;42.264;24.536;2023-06-10T03:40:07;98725.84;;;16.72;100.00
39793;BME280;26080;42.264;24.536;2023-06-10T03:42:34;98734.81;;;16.81;100.00
39793;BME280;26080;42.264;24.536;2023-06-10T03:44:59;98741.91;;;16.80;100.00
39793;BME280;26080;42.264;24.536;2023-06-10T03:47:24;98750.34;;;16.74;100.00
39793;BME280;26080;42.264;24.536;2023-06-10T03:49:50;98750.00;;;16.68;100.00
39793;BME280;26080;42.264;24.536;2023-06-10T03:52:15;98745.28;;;16.71;100.00
39793;BME280;26080;42.264;24.536;2023-06-10T03:54:41;98723.91;;;16.74;100.00
39793;BME280;26080;42.264;24.536;2023-06-10T03:57:06;98733.53;;;16.75;100.00
39793;BME280;26080;42.264;24.536;2023-06-10T03:59:32;98744.81;;;16.77;100.00
39793;BME280;26080;42.264;24.536;2023-06-10T04:01:57;98741.72;;;16.72;100.00
39793;BME280;26080;42.264;24.536;2023-06-10T04:04:23;98743.47;;;16.83;100.00
39793;BME280;26080;42.264;24.536;2023-06-10T04:06:49;98741.91;;;16.80;100.00
39793;BME280;26080;42.264;24.536;2023-06-10T04:09:15;98747.66;;;16.85;100.00
39793;BME280;26080;42.264;24.536;2023-06-10T04:11:41;98752.59;;;16.90;100.00
39793;BME280;26080;42.264;24.536;2023-06-10T04:14:07;98763.28;;;16.88;100.00
39793;BME280;26080;42.264;24.536;2023-06-10T04:16:33;98762.66;;;16.96;100.00
39793;BME280;26080;42.264;24.536;2023-06-10T04:18:59;98767.94;;;16.96;100.00
39793;BME280;26080;42.264;24.536;2023-06-10T04:21:26;98755.38;;;16.88;100.00
39793;BME280;26080;42.264;24.536;2023-06-10T04:23:51;98770.94;;;17.03;100.00
39793;BME280;26080;42.264;24.536;2023-06-10T04:26:17;98764.81;;;17.02;100.00
39793;BME280;26080;42.264;24.536;2023-06-10T04:28:43;98769.31;;;17.11;100.00
39793;BME280;26080;42.264;24.536;2023-06-10T04:31:09;98757.97;;;17.00;100.00
39793;BME280;26080;42.264;24.536;2023-06-10T04:33:35;98778.84;;;17.14;100.00
39793;BME280;26080;42.264;24.536;2023-06-10T04:36:00;98768.72;;;17.19;100.00
39793;BME280;26080;42.264;24.536;2023-06-10T04:38:26;98769.75;;;17.28;100.00
39793;BME280;26080;42.264;24.536;2023-06-10T04:40:51;98761.91;;;17.26;100.00
39793;BME280;26080;42.264;24.536;2023-06-10T04:43:17;98779.44;;;17.38;100.00
39793;BME280;26080;42.264;24.536;2023-06-10T04:45:42;98765.69;;;17.44;100.00
39793;BME280;26080;42.264;24.536;2023-06-10T04:48:11;98775.25;;;17.57;100.00
39793;BME280;26080;42.264;24.536;2023-06-10T04:50:37;98773.06;;;17.62;100.00
39793;BME280;26080;42.264;24.536;2023-06-10T04:53:02;98767.19;;;17.58;100.00
39793;BME280;26080;42.264;24.536;2023-06-10T04:55:28;98768.72;;;17.61;100.00
39793;BME280;26080;42.264;24.536;2023-06-10T04:57:54;98771.34;;;17.72;100.00
39793;BME280;26080;42.264;24.536;2023-06-10T05:00:19;98775.19;;;17.89;100.00
39793;BME280;26080;42.264;24.536;2023-06-10T05:02:45;98771.63;;;17.99;100.00
39793;BME280;26080;42.264;24.536;2023-06-10T05:05:17;98769.34;;;18.16;100.00
39793;BME280;26080;42.264;24.536;2023-06-10T05:07:43;98749.00;;;18.26;100.00
39793;BME280;26080;42.264;24.536;2023-06-10T05:10:09;98778.81;;;18.58;100.00
39793;BME280;26080;42.264;24.536;2023-06-10T05:12:35;98782.38;;;18.69;100.00
39793;BME280;26080;42.264;24.536;2023-06-10T05:15:00;98782.72;;;18.94;100.00
39793;BME280;26080;42.264;24.536;2023-06-10T05:17:27;98761.03;;;18.80;100.00
39793;BME280;26080;42.264;24.536;2023-06-10T05:19:53;98772.22;;;18.83;100.00
39793;BME280;26080;42.264;24.536;2023-06-10T05:22:19;98780.31;;;19.01;100.00
39793;BME280;26080;42.264;24.536;2023-06-10T05:24:44;98780.91;;;19.24;100.00
39793;BME280;26080;42.264;24.536;2023-06-10T05:27:10;98788.72;;;19.45;100.00
39793;BME280;26080;42.264;24.536;2023-06-10T05:29:35;98783.00;;;19.59;100.00
39793;BME280;26080;42.264;24.536;2023-06-10T05:32:01;98745.81;;;19.49;100.00
39793;BME280;26080;42.264;24.536;2023-06-10T05:34:29;98784.50;;;19.91;100.00
39793;BME280;26080;42.264;24.536;2023-06-10T05:36:54;98779.72;;;20.31;100.00
39793;BME280;26080;42.264;24.536;2023-06-10T05:39:20;98782.44;;;20.59;100.00
39793;BME280;26080;42.264;24.536;2023-06-10T05:41:45;98781.81;;;20.65;100.00
39793;BME280;26080;42.264;24.536;2023-06-10T05:44:11;98780.84;;;20.66;100.00
39793;BME280;26080;42.264;24.536;2023-06-10T05:46:36;98778.13;;;20.48;100.00
39793;BME280;26080;42.264;24.536;2023-06-10T05:49:02;98780.53;;;20.41;100.00
39793;BME280;26080;42.264;24.536;2023-06-10T05:51:28;98774.50;;;20.49;100.00
39793;BME280;26080;42.264;24.536;2023-06-10T05:53:54;98777.47;;;20.64;100.00
39793;BME280;26080;42.264;24.536;2023-06-10T05:56:20;98769.78;;;20.88;100.00
39793;BME280;26080;42.264;24.536;2023-06-10T05:58:48;98774.06;;;21.17;100.00
39793;BME280;26080;42.264;24.536;2023-06-10T06:01:13;98780.91;;;21.37;100.00
39793;BME280;26080;42.264;24.536;2023-06-10T06:03:39;98777.31;;;21.46;100.00
39793;BME280;26080;42.264;24.536;2023-06-10T06:06:05;98775.22;;;21.76;100.00
39793;BME280;26080;42.264;24.536;2023-06-10T06:08:30;98776.78;;;21.86;100.00
39793;BME280;26080;42.264;24.536;2023-06-10T06:10:56;98787.81;;;22.09;100.00
39793;BME280;26080;42.264;24.536;2023-06-10T06:13:22;98788.28;;;22.39;100.00
39793;BME280;26080;42.264;24.536;2023-06-10T06:15:48;98782.84;;;22.57;100.00
39793;BME280;26080;42.264;24.536;2023-06-10T06:18:13;98794.16;;;22.85;100.00
39793;BME280;26080;42.264;24.536;2023-06-10T06:20:38;98792.22;;;23.03;100.00
39793;BME280;26080;42.264;24.536;2023-06-10T06:23:04;98790.88;;;23.15;100.00
39793;BME280;26080;42.264;24.536;2023-06-10T06:25:29;98776.38;;;23.18;100.00
39793;BME280;26080;42.264;24.536;2023-06-10T06:28:01;98786.25;;;23.50;100.00
39793;BME280;26080;42.264;24.536;2023-06-10T06:30:29;98788.09;;;23.66;100.00
39793;BME280;26080;42.264;24.536;2023-06-10T06:32:55;98787.06;;;23.91;100.00
39793;BME280;26080;42.264;24.536;2023-06-10T06:35:49;98781.84;;;24.14;100.00
39793;BME280;26080;42.264;24.536;2023-06-10T06:38:28;98782.47;;;24.24;100.00
39793;BME280;26080;42.264;24.536;2023-06-10T06:40:53;98769.78;;;24.26;100.00
39793;BME280;26080;42.264;24.536;2023-06-10T06:43:19;98766.19;;;24.50;100.00
39793;BME280;26080;42.264;24.536;2023-06-10T06:45:45;98773.38;;;24.80;100.00
39793;BME280;26080;42.264;24.536;2023-06-10T06:48:11;98762.56;;;25.05;99.96
39793;BME280;26080;42.264;24.536;2023-06-10T06:50:37;98750.22;;;24.96;98.86
39793;BME280;26080;42.264;24.536;2023-06-10T06:53:03;98769.41;;;25.30;96.71
39793;BME280;26080;42.264;24.536;2023-06-10T06:55:29;98747.97;;;25.53;95.84
39793;BME280;26080;42.264;24.536;2023-06-10T06:57:54;98756.06;;;25.45;96.50
39793;BME280;26080;42.264;24.536;2023-06-10T07:00:20;98749.66;;;25.08;97.07
39793;BME280;26080;42.264;24.536;2023-06-10T07:02:49;98751.66;;;25.06;99.89
39793;BME280;26080;42.264;24.536;2023-06-10T07:05:15;98749.16;;;24.74;98.47
39793;BME280;26080;42.264;24.536;2023-06-10T07:07:40;98745.00;;;25.02;97.75
39793;BME280;26080;42.264;24.536;2023-06-10T07:10:06;98753.94;;;25.18;99.52
39793;BME280;26080;42.264;24.536;2023-06-10T07:12:32;98745.34;;;25.45;98.05
39793;BME280;26080;42.264;24.536;2023-06-10T07:14:57;98739.94;;;25.30;96.64
39793;BME280;26080;42.264;24.536;2023-06-10T07:17:22;98712.09;;;25.17;100.00
39793;BME280;26080;42.264;24.536;2023-06-10T07:19:48;98744.53;;;25.22;100.00
39793;BME280;26080;42.264;24.536;2023-06-10T07:22:14;98744.88;;;25.19;99.23
39793;BME280;26080;42.264;24.536;2023-06-10T07:24:39;98732.41;;;25.11;97.83
39793;BME280;26080;42.264;24.536;2023-06-10T07:27:05;98745.47;;;25.06;96.17
39793;BME280;26080;42.264;24.536;2023-06-10T07:29:32;98739.72;;;24.86;100.00
39793;BME280;26080;42.264;24.536;2023-06-10T07:31:57;98735.22;;;24.87;100.00
39793;BME280;26080;42.264;24.536;2023-06-10T07:34:23;98742.84;;;25.21;100.00
39793;BME280;26080;42.264;24.536;2023-06-10T07:36:49;98736.66;;;25.43;94.11
39793;BME280;26080;42.264;24.536;2023-06-10T07:39:15;98732.88;;;25.15;99.46
39793;BME280;26080;42.264;24.536;2023-06-10T07:41:40;98736.66;;;25.20;99.28
39793;BME280;26080;42.264;24.536;2023-06-10T07:44:06;98729.81;;;25.40;99.03
39793;BME280;26080;42.264;24.536;2023-06-10T07:46:32;98728.75;;;25.64;100.00
39793;BME280;26080;42.264;24.536;2023-06-10T07:48:57;98730.75;;;25.85;92.72
39793;BME280;26080;42.264;24.536;2023-06-10T07:51:23;98734.47;;;25.99;93.90
39793;BME280;26080;42.264;24.536;2023-06-10T07:53:49;98739.94;;;26.50;92.91
39793;BME280;26080;42.264;24.536;2023-06-10T07:56:14;98736.16;;;26.80;88.27
39793;BME280;26080;42.264;24.536;2023-06-10T07:58:40;98727.44;;;26.78;90.26
39793;BME280;26080;42.264;24.536;2023-06-10T08:01:05;98732.44;;;26.81;88.12
39793;BME280;26080;42.264;24.536;2023-06-10T08:03:31;98718.91;;;26.90;87.57
39793;BME280;26080;42.264;24.536;2023-06-10T08:05:57;98726.75;;;26.91;86.53
39793;BME280;26080;42.264;24.536;2023-06-10T08:08:22;98723.94;;;26.78;81.20
39793;BME280;26080;42.264;24.536;2023-06-10T08:10:48;98720.00;;;26.59;80.49
39793;BME280;26080;42.264;24.536;2023-06-10T08:13:15;98726.31;;;26.51;77.95
39793;BME280;26080;42.264;24.536;2023-06-10T08:15:40;98716.97;;;26.33;68.45
39793;BME280;26080;42.264;24.536;2023-06-10T08:18:05;98723.19;;;26.18;76.77
39793;BME280;26080;42.264;24.536;2023-06-10T08:20:31;98716.78;;;26.19;71.28
39793;BME280;26080;42.264;24.536;2023-06-10T08:22:57;98717.44;;;26.07;70.44
39793;BME280;26080;42.264;24.536;2023-06-10T08:25:23;98724.47;;;25.93;73.29
39793;BME280;26080;42.264;24.536;2023-06-10T08:27:48;98725.00;;;25.88;72.22
39793;BME280;26080;42.264;24.536;2023-06-10T08:30:15;98719.63;;;25.74;73.02
39793;BME280;26080;42.264;24.536;2023-06-10T08:32:41;98720.94;;;25.40;75.33
39793;BME280;26080;42.264;24.536;2023-06-10T08:35:07;98736.75;;;25.12;77.82
39793;BME280;26080;42.264;24.536;2023-06-10T08:37:33;98735.13;;;25.03;81.04
39793;BME280;26080;42.264;24.536;2023-06-10T08:39:58;98734.56;;;25.07;79.16
39793;BME280;26080;42.264;24.536;2023-06-10T08:42:34;98744.72;;;24.89;78.55
39793;BME280;26080;42.264;24.536;2023-06-10T08:45:04;98733.75;;;24.76;80.35
39793;BME280;26080;42.264;24.536;2023-06-10T08:47:34;98738.16;;;24.92;79.95
39793;BME280;26080;42.264;24.536;2023-06-10T08:50:03;98741.41;;;24.87;78.04
39793;BME280;26080;42.264;24.536;2023-06-10T08:52:35;98718.09;;;24.96;75.19
39793;BME280;26080;42.264;24.536;2023-06-10T08:55:10;98728.69;;;25.12;71.27
39793;BME280;26080;42.264;24.536;2023-06-10T08:57:36;98723.94;;;25.22;68.11
39793;BME280;26080;42.264;24.536;2023-06-10T09:00:05;98716.78;;;25.15;71.79
39793;BME280;26080;42.264;24.536;2023-06-10T09:02:32;98721.31;;;25.14;72.63
39793;BME280;26080;42.264;24.536;2023-06-10T09:05:00;98728.88;;;25.48;73.30
39793;BME280;26080;42.264;24.536;2023-06-10T09:07:33;98724.53;;;25.09;73.31
39793;BME280;26080;42.264;24.536;2023-06-10T09:10:04;98725.59;;;25.23;75.68
39793;BME280;26080;42.264;24.536;2023-06-10T09:12:32;98728.66;;;25.35;73.61
39793;BME280;26080;42.264;24.536;2023-06-10T09:14:58;98717.44;;;25.77;72.79
39793;BME280;26080;42.264;24.536;2023-06-10T09:17:24;98704.03;;;25.92;75.47
39793;BME280;26080;42.264;24.536;2023-06-10T09:19:50;98716.44;;;25.93;74.05
39793;BME280;26080;42.264;24.536;2023-06-10T09:22:19;98719.84;;;26.02;73.88
39793;BME280;26080;42.264;24.536;2023-06-10T09:24:46;98715.84;;;26.12;72.14
39793;BME280;26080;42.264;24.536;2023-06-10T09:27:11;98705.88;;;26.06;71.73
39793;BME280;26080;42.264;24.536;2023-06-10T09:29:53;98717.78;;;25.89;71.14
39793;BME280;26080;42.264;24.536;2023-06-10T09:32:20;98709.84;;;26.10;73.45
39793;BME280;26080;42.264;24.536;2023-06-10T09:34:46;98711.88;;;26.23;71.09
39793;BME280;26080;42.264;24.536;2023-06-10T09:37:11;98709.75;;;26.48;69.51
39793;BME280;26080;42.264;24.536;2023-06-10T09:39:39;98709.88;;;26.97;72.44
39793;BME280;26080;42.264;24.536;2023-06-10T09:42:16;98708.56;;;27.08;71.11
39793;BME280;26080;42.264;24.536;2023-06-10T09:44:49;98709.63;;;27.13;66.81
39793;BME280;26080;42.264;24.536;2023-06-10T09:47:20;98705.72;;;27.37;67.66
39793;BME280;26080;42.264;24.536;2023-06-10T09:49:46;98706.22;;;27.26;70.67
39793;BME280;26080;42.264;24.536;2023-06-10T09:52:12;98704.97;;;27.22;69.93
39793;BME280;26080;42.264;24.536;2023-06-10T09:54:37;98709.16;;;27.03;73.62
39793;BME280;26080;42.264;24.536;2023-06-10T09:57:07;98706.72;;;26.94;72.46
39793;BME280;26080;42.264;24.536;2023-06-10T09:59:33;98689.59;;;26.58;69.49
39793;BME280;26080;42.264;24.536;2023-06-10T10:02:00;98709.41;;;26.94;66.03
39793;BME280;26080;42.264;24.536;2023-06-10T10:04:26;98695.97;;;26.72;66.19
39793;BME280;26080;42.264;24.536;2023-06-10T10:06:52;98701.00;;;27.18;63.16
39793;BME280;26080;42.264;24.536;2023-06-10T10:09:18;98714.78;;;27.30;62.79
39793;BME280;26080;42.264;24.536;2023-06-10T10:11:44;98697.63;;;27.59;60.17
39793;BME280;26080;42.264;24.536;2023-06-10T10:14:10;98676.44;;;27.70;59.41
39793;BME280;26080;42.264;24.536;2023-06-10T10:16:37;98697.16;;;27.27;61.54
39793;BME280;26080;42.264;24.536;2023-06-10T10:19:28;98690.66;;;27.15;60.94
39793;BME280;26080;42.264;24.536;2023-06-10T10:22:02;98699.44;;;26.88;61.19
39793;BME280;26080;42.264;24.536;2023-06-10T10:24:55;98684.16;;;26.88;60.59
39793;BME280;26080;42.264;24.536;2023-06-10T10:27:26;98673.97;;;26.83;61.03
39793;BME280;26080;42.264;24.536;2023-06-10T10:29:54;98692.44;;;26.50;60.45
39793;BME280;26080;42.264;24.536;2023-06-10T10:32:30;98682.25;;;26.46;62.12
39793;BME280;26080;42.264;24.536;2023-06-10T10:35:08;98687.53;;;26.39;62.27
39793;BME280;26080;42.264;24.536;2023-06-10T10:38:04;98669.16;;;26.07;63.64
39793;BME280;26080;42.264;24.536;2023-06-10T10:40:32;98689.69;;;25.85;64.96
39793;BME280;26080;42.264;24.536;2023-06-10T10:42:59;98684.59;;;25.90;66.38
39793;BME280;26080;42.264;24.536;2023-06-10T10:45:27;98693.97;;;25.56;68.37
39793;BME280;26080;42.264;24.536;2023-06-10T10:47:56;98694.41;;;25.45;69.75
39793;BME280;26080;42.264;24.536;2023-06-10T10:50:22;98692.19;;;25.49;72.30
39793;BME280;26080;42.264;24.536;2023-06-10T10:52:55;98687.94;;;25.39;71.02
39793;BME280;26080;42.264;24.536;2023-06-10T10:55:22;98683.78;;;25.37;72.28
39793;BME280;26080;42.264;24.536;2023-06-10T10:57:55;98684.25;;;25.55;73.73
39793;BME280;26080;42.264;24.536;2023-06-10T11:02:57;98669.69;;;25.87;68.24
39793;BME280;26080;42.264;24.536;2023-06-10T11:05:40;98654.81;;;25.85;66.82
39793;BME280;26080;42.264;24.536;2023-06-10T11:08:10;98679.03;;;25.77;65.43
39793;BME280;26080;42.264;24.536;2023-06-10T11:10:36;98663.31;;;25.88;67.43
39793;BME280;26080;42.264;24.536;2023-06-10T11:13:09;98677.38;;;26.05;66.88
39793;BME280;26080;42.264;24.536;2023-06-10T11:15:42;98654.06;;;26.20;67.35
39793;BME280;26080;42.264;24.536;2023-06-10T11:18:13;98662.75;;;26.22;68.43
39793;BME280;26080;42.264;24.536;2023-06-10T11:26:15;98654.50;;;26.39;67.29
39793;BME280;26080;42.264;24.536;2023-06-10T11:31:33;98653.13;;;26.85;64.21
39793;BME280;26080;42.264;24.536;2023-06-10T11:34:04;98642.16;;;27.02;64.34
39793;BME280;26080;42.264;24.536;2023-06-10T11:36:31;98650.56;;;27.20;61.26
39793;BME280;26080;42.264;24.536;2023-06-10T11:38:58;98638.94;;;27.41;60.47
39793;BME280;26080;42.264;24.536;2023-06-10T11:41:26;98629.16;;;27.61;61.57
39793;BME280;26080;42.264;24.536;2023-06-10T11:43:55;98636.09;;;27.00;60.19
39793;BME280;26080;42.264;24.536;2023-06-10T11:46:24;98618.84;;;26.88;61.47
39793;BME280;26080;42.264;24.536;2023-06-10T11:48:56;98628.66;;;26.74;64.55
39793;BME280;26080;42.264;24.536;2023-06-10T11:51:25;98629.78;;;26.86;63.79
39793;BME280;26080;42.264;24.536;2023-06-10T11:53:52;98632.16;;;26.74;62.63
39793;BME280;26080;42.264;24.536;2023-06-10T11:56:27;98627.94;;;26.86;70.12
39793;BME280;26080;42.264;24.536;2023-06-10T11:58:57;98621.94;;;27.06;60.52
39793;BME280;26080;42.264;24.536;2023-06-10T12:01:25;98607.22;;;27.02;60.59
39793;BME280;26080;42.264;24.536;2023-06-10T12:04:04;98602.75;;;26.88;66.13
39793;BME280;26080;42.264;24.536;2023-06-10T12:09:18;98608.50;;;27.06;63.73
39793;BME280;26080;42.264;24.536;2023-06-10T12:11:44;98603.56;;;27.09;64.94
39793;BME280;26080;42.264;24.536;2023-06-10T12:14:10;98595.78;;;27.00;64.29
39793;BME280;26080;42.264;24.536;2023-06-10T12:16:36;98614.47;;;27.01;66.01
39793;BME280;26080;42.264;24.536;2023-06-10T12:19:03;98606.63;;;27.06;64.41
39793;BME280;26080;42.264;24.536;2023-06-10T12:21:30;98609.31;;;27.06;63.89
39793;BME280;26080;42.264;24.536;2023-06-10T12:26:42;98602.19;;;27.20;70.15
39793;BME280;26080;42.264;24.536;2023-06-10T12:29:25;98576.34;;;27.19;65.26
39793;BME280;26080;42.264;24.536;2023-06-10T12:32:03;98579.97;;;27.39;68.18
39793;BME280;26080;42.264;24.536;2023-06-10T12:34:40;98579.31;;;27.31;63.51
39793;BME280;26080;42.264;24.536;2023-06-10T12:37:09;98580.38;;;27.36;65.17
39793;BME280;26080;42.264;24.536;2023-06-10T12:39:51;98575.81;;;27.30;68.04
39793;BME280;26080;42.264;24.536;2023-06-10T12:42:21;98562.16;;;27.32;65.55
39793;BME280;26080;42.264;24.536;2023-06-10T12:44:53;98555.91;;;27.25;67.07
39793;BME280;26080;42.264;24.536;2023-06-10T12:47:18;98562.91;;;27.19;64.89
39793;BME280;26080;42.264;24.536;2023-06-10T12:49:44;98564.22;;;27.30;71.03
39793;BME280;26080;42.264;24.536;2023-06-10T12:52:09;98558.47;;;27.39;66.80
39793;BME280;26080;42.264;24.536;2023-06-10T12:54:35;98554.81;;;27.47;65.78
39793;BME280;26080;42.264;24.536;2023-06-10T12:57:01;98558.19;;;27.62;66.74
39793;BME280;26080;42.264;24.536;2023-06-10T12:59:27;98559.28;;;27.68;66.13
39793;BME280;26080;42.264;24.536;2023-06-10T13:01:53;98552.91;;;27.69;67.89
39793;BME280;26080;42.264;24.536;2023-06-10T13:04:20;98557.06;;;27.78;65.42
39793;BME280;26080;42.264;24.536;2023-06-10T13:06:47;98552.91;;;27.82;67.55
39793;BME280;26080;42.264;24.536;2023-06-10T13:09:13;98555.84;;;27.87;66.16